Latest Weather Observations for McArthur River Mine

IDD60801

Issued at 5:05 am CST Friday 25 July 2014 (issued every 30 minutes, with the page automatically refreshed every 10 minutes)

About weather observations | Map of weather stations | Latest weather observations for NT | Other Formats
Station Details ID: 014704 Name: MCARTHUR RIVER MINE AIRPORT Lat: -16.44 Lon: 136.08 Height: 40.0 m
Data from the previous 72 hours. | See also: Recent months at McArthur River Mine
Date/Time
CST
Temp
°C
App
Temp
°C
Dew
Point
Rel
Hum
%
Delta-T
°C
Wind Press
QNH
hPa
Press
MSL
hPa
Rain
since 9 am
mm
Dir
 
Spd
km/h
Gust
km/h
Spd
kts
Gust
kts
25/05:00am 19.1 22.0 19.1 100 0.0 W 2 6 1 3 1016.3 - 0.0
25/04:43am 19.4 22.8 19.4 100 0.0 NNE 0 0 0 0 1016.2 - 0.0
25/04:30am 19.3 22.3 19.3 100 0.0 NE 2 7 1 4 1016.2 - 0.0
25/04:00am 18.1 19.8 18.1 100 0.0 WSW 6 7 3 4 1016.2 - 0.0
25/03:30am 17.4 20.0 17.4 100 0.0 CALM 0 0 0 0 1016.0 - 0.0
25/03:06am 16.6 18.1 16.6 100 0.0 WSW 4 7 2 4 1016.0 - 0.0
25/03:00am 16.3 17.6 16.1 99 0.1 WSW 4 6 2 3 1016.0 1016.0 0.0
25/02:30am 17.1 18.4 17.1 100 0.0 SW 6 7 3 4 1016.2 - 0.0
25/02:00am 17.4 19.2 17.4 100 0.0 SW 4 7 2 4 1016.3 - 0.0
25/01:30am 18.1 19.8 18.1 100 0.0 WSW 6 7 3 4 1016.4 - 0.0
25/01:00am 19.7 22.1 19.7 100 0.0 NE 6 7 3 4 1016.5 - 0.0
25/12:30am 19.9 22.1 19.6 98 0.2 NE 7 9 4 5 1016.6 - 0.0
25/12:00am 20.1 21.7 18.2 89 1.2 NE 7 9 4 5 1016.5 1016.5 0.0
 
Date/Time
CST
Temp
°C
App
Temp
°C
Dew
Point
Rel
Hum
%
Delta-T
°C
Wind Press
QNH
hPa
Press
MSL
hPa
Rain
since 9 am
mm
Dir
 
Spd
km/h
Gust
km/h
Spd
kts
Gust
kts
24/11:36pm 20.7 22.5 18.3 86 1.5 NNE 6 9 3 5 1016.5 - 0.0
24/11:30pm 20.6 22.2 17.8 84 1.7 NE 6 9 3 5 1016.6 - 0.0
24/11:26pm 20.6 22.0 17.8 84 1.7 NE 7 9 4 5 1016.6 - 0.0
24/11:00pm 21.2 22.5 17.6 80 2.2 NE 7 11 4 6 1016.5 - 0.0
24/10:30pm 21.7 22.4 17.1 75 2.8 NE 9 11 5 6 1016.5 - 0.0
24/10:00pm 21.8 22.7 16.5 72 3.2 NE 7 11 4 6 1016.3 - 0.0
24/09:30pm 22.2 22.7 15.5 66 4.0 NNE 7 11 4 6 1015.9 - 0.0
24/09:00pm 22.8 22.6 14.6 60 4.8 NE 9 13 5 7 1015.8 1015.8 0.0
24/08:30pm 23.7 23.0 14.4 56 5.5 NNE 11 19 6 10 1015.4 - 0.0
24/08:00pm 24.4 22.7 13.6 51 6.3 NNE 15 26 8 14 1015.0 - 0.0
24/07:30pm 25.0 23.1 12.9 47 7.0 NNE 15 26 8 14 1014.6 - 0.0
24/07:00pm 25.9 23.4 12.4 43 7.8 NNE 17 28 9 15 1014.0 - 0.0
24/06:30pm 26.9 23.9 10.6 36 9.2 NNE 17 24 9 13 1013.6 - 0.0
24/06:00pm 27.8 25.0 8.6 30 10.5 NE 13 19 7 10 1013.1 1013.0 0.0
24/05:30pm 28.5 25.7 8.7 29 10.9 NNE 13 19 7 10 1012.8 - 0.0
24/05:00pm 29.7 27.6 8.2 26 11.8 NNE 9 15 5 8 1012.8 - 0.0
24/04:30pm 30.6 28.9 7.7 24 12.5 SW 6 11 3 6 1012.5 - 0.0
24/04:00pm 30.6 28.1 6.5 22 12.9 E 9 13 5 7 1012.6 - 0.0
24/03:30pm 30.1 27.4 5.4 21 13.0 E 9 15 5 8 1012.6 - 0.0
24/03:00pm 30.6 27.9 5.8 21 13.1 ESE 9 22 5 12 1012.9 1012.8 0.0
24/02:30pm 30.5 27.7 5.0 20 13.3 ENE 9 19 5 10 1013.1 - 0.0
24/02:00pm 30.2 27.9 7.4 24 12.4 NNW 9 13 5 7 1013.2 - 0.0
24/01:30pm 29.8 26.2 5.1 21 12.9 ENE 13 22 7 12 1013.8 - 0.0
24/01:00pm 29.5 28.4 10.1 30 11.0 W 6 20 3 11 1014.4 - 0.0
24/12:30pm 28.3 27.2 10.5 33 10.1 NNW 7 15 4 8 1015.0 - 0.0
24/12:00pm 27.8 25.9 10.5 34 9.8 NNW 11 17 6 9 1015.5 1015.5 0.0
24/11:30am 26.5 25.7 11.0 38 8.8 SSE 6 9 3 5 1016.1 - 0.0
24/11:00am 24.8 25.0 14.3 52 6.2 S 6 11 3 6 1016.6 - 0.0
24/10:30am 23.2 23.2 15.3 61 4.7 W 9 15 5 8 1016.9 - 0.0
24/10:00am 21.4 21.8 16.4 73 3.0 WSW 9 15 5 8 1017.2 - 0.0
24/09:59am 21.3 22.2 16.5 74 2.9 SW 7 15 4 8 1017.2 - 0.0
24/09:41am 20.1 21.2 16.5 80 2.2 SW 6 11 3 6 1017.3 - 0.0
24/09:35am 19.5 20.6 16.5 83 1.8 SW 6 11 3 6 1017.3 - 0.0
24/09:30am 19.1 20.2 16.5 85 1.6 SW 6 9 3 5 1017.3 - 0.0
24/09:22am 18.6 19.5 16.6 88 1.2 SW 7 13 4 7 1017.3 - 0.0
24/09:08am 18.0 18.0 16.2 89 1.1 SW 11 13 6 7 1017.3 - 0.0
24/09:00am 17.4 17.6 15.7 90 1.0 SW 9 13 5 7 1017.2 1017.2 0.0
24/08:30am 16.6 16.3 12.6 77 2.2 SSW 6 7 3 4 1017.0 - 0.0
24/08:00am 15.0 16.0 13.2 89 1.0 CALM 0 0 0 0 1016.4 - 0.0
24/07:30am 13.5 14.1 11.9 90 0.9 CALM 0 0 0 0 1015.8 - 0.0
24/07:00am 11.9 12.1 10.6 92 0.7 CALM 0 0 0 0 1015.6 - 0.0
24/06:48am 11.6 11.8 10.5 93 0.6 CALM 0 0 0 0 1015.6 - 0.0
24/06:30am 11.2 11.3 10.3 94 0.5 CALM 0 0 0 0 1015.3 - 0.0
24/06:00am 11.5 11.8 11.0 97 0.3 SW 0 0 0 0 1015.2 1015.1 0.0
24/05:46am 11.4 10.9 10.8 96 0.3 W 4 7 2 4 1015.2 - 0.0
24/05:30am 11.6 10.2 10.8 95 0.4 WSW 9 11 5 6 1015.1 - 0.0
24/05:00am 11.4 9.8 10.1 92 0.7 WSW 9 11 5 6 1014.8 - 0.0
24/04:30am 11.9 11.1 11.0 94 0.5 W 6 9 3 5 1014.4 - 0.0
24/04:00am 12.2 12.2 9.9 86 1.2 CALM 0 0 0 0 1014.3 - 0.0
24/03:30am 12.2 12.1 9.4 83 1.4 CALM 0 0 0 0 1014.2 - 0.0
24/03:00am 12.6 11.2 9.4 81 1.6 SW 7 11 4 6 1014.3 1014.2 0.0
24/02:30am 12.7 12.3 8.4 75 2.1 CALM 0 0 0 0 1014.2 - 0.0
24/02:00am 14.0 14.2 10.4 79 1.9 CALM 0 0 0 0 1014.3 - 0.0
24/01:30am 14.5 14.7 10.5 77 2.1 CALM 0 0 0 0 1014.4 - 0.0
24/01:00am 15.1 14.7 9.7 70 2.8 E 2 6 1 3 1014.6 - 0.0
24/12:30am 15.6 15.2 9.7 68 3.1 NNE 2 6 1 3 1014.5 - 0.0
24/12:00am 16.5 15.8 11.9 74 2.5 N 7 9 4 5 1014.5 1014.4 0.0
 
Date/Time
CST
Temp
°C
App
Temp
°C
Dew
Point
Rel
Hum
%
Delta-T
°C
Wind Press
QNH
hPa
Press
MSL
hPa
Rain
since 9 am
mm
Dir
 
Spd
km/h
Gust
km/h
Spd
kts
Gust
kts
23/11:55pm 16.1 15.3 11.7 75 2.4 N 7 9 4 5 1014.4 - 0.0
23/11:44pm 16.0 14.8 9.4 65 3.4 N 6 7 3 4 1014.4 - 0.0
23/11:43pm 16.0 14.8 9.7 66 3.3 N 6 7 3 4 1014.4 - 0.0
23/11:30pm 17.3 16.3 12.4 73 2.7 NNE 9 11 5 6 1014.4 - 0.0
23/11:26pm 17.0 15.8 11.7 71 2.9 NNE 9 11 5 6 1014.4 - 0.0
23/11:00pm 17.2 16.3 9.4 60 4.1 E 4 7 2 4 1014.8 - 0.0
23/10:30pm 18.1 18.1 9.7 58 4.4 CALM 0 0 0 0 1014.7 - 0.0
23/10:00pm 18.9 17.6 9.9 56 4.8 NNE 7 9 4 5 1014.5 - 0.0
23/09:30pm 19.5 18.4 10.0 54 5.1 N 6 7 3 4 1014.5 - 0.0
23/09:00pm 20.8 19.1 10.0 50 5.8 N 9 11 5 6 1014.2 1014.1 0.0
23/08:30pm 21.2 19.8 9.4 47 6.3 N 7 9 4 5 1014.1 - 0.0
23/08:00pm 22.0 19.9 8.2 41 7.3 N 9 13 5 7 1013.9 - 0.0
23/07:30pm 23.5 20.9 7.6 36 8.3 N 11 13 6 7 1013.5 - 0.0
23/07:00pm 22.3 19.6 2.9 28 9.3 WNW 6 7 3 4 1013.0 - 0.0
23/06:30pm 24.5 21.5 0.8 21 11.0 NNW 6 7 3 4 1012.8 - 0.0
23/06:00pm 27.7 24.2 -1.3 15 13.3 NW 7 9 4 5 1012.6 1012.5 0.0
23/05:51pm 28.7 25.1 -2.4 13 14.1 NW 7 9 4 5 1012.6 - 0.0
23/05:35pm 29.3 25.2 -3.0 12 14.6 NNW 9 11 5 6 1012.6 - 0.0
23/05:30pm 29.5 25.4 -2.9 12 14.7 NNW 9 11 5 6 1012.5 - 0.0
23/05:00pm 30.2 26.3 -4.8 10 15.4 NNW 7 11 4 6 1012.5 - 0.0
23/04:30pm 30.4 26.9 -6.0 9 15.7 W 4 7 2 4 1012.4 - 0.0
23/04:00pm 30.9 27.1 -5.6 9 15.9 SSW 6 11 3 6 1012.2 - 0.0
23/03:30pm 30.2 26.2 -6.1 9 15.6 NNW 7 13 4 7 1012.3 - 0.0
23/03:00pm 30.3 25.9 -6.1 9 15.7 NNE 9 17 5 9 1012.4 1012.3 0.0
23/02:30pm 30.6 26.2 -5.8 9 15.8 ESE 9 15 5 8 1012.7 - 0.0
23/02:00pm 29.9 26.0 -6.4 9 15.5 SSW 6 9 3 5 1013.1 - 0.0
23/01:30pm 29.4 24.7 -5.4 10 15.1 NNE 11 17 6 9 1013.7 - 0.0
23/01:00pm 29.5 25.5 -5.3 10 15.1 ENE 7 11 4 6 1014.2 - 0.0
23/12:30pm 29.4 24.9 -6.7 9 15.3 NE 9 17 5 9 1014.8 - 0.0
23/12:00pm 27.9 23.7 -7.9 9 14.6 SSE 7 13 4 7 1015.4 1015.4 0.0
23/11:30am 27.1 22.6 -15.7 5 15.1 S 6 13 3 7 1016.1 - 0.0
23/11:00am 26.1 21.7 -5.5 12 13.3 S 9 13 5 7 1016.6 - 0.0
23/10:30am 24.3 20.1 -4.0 15 12.0 SSW 9 13 5 7 1017.1 - 0.0
23/10:00am 22.6 19.3 -0.2 22 10.3 SSW 7 11 4 6 1017.3 - 0.0
23/09:30am 19.8 16.8 0.8 28 8.5 SSW 6 7 3 4 1017.6 - 0.0
23/09:00am 17.1 14.5 1.1 34 7.0 SSW 4 7 2 4 1017.6 1017.6 0.0
23/08:30am 13.9 11.7 1.2 42 5.5 W 2 7 1 4 1017.5 - 0.0
23/08:00am 10.6 9.1 3.2 60 3.2 CALM 0 0 0 0 1017.3 - 0.0
23/07:30am 7.9 6.3 2.6 69 2.2 CALM 0 0 0 0 1017.0 - 0.0
23/07:00am 6.6 5.0 2.3 74 1.8 CALM 0 0 0 0 1016.7 - 0.0
23/06:30am 7.1 5.5 2.6 73 1.9 CALM 0 0 0 0 1016.3 - 0.0
23/06:00am 7.2 5.6 2.5 72 1.9 CALM 0 0 0 0 1016.1 1016.1 0.0
23/05:30am 7.4 5.7 2.1 69 2.2 CALM 0 0 0 0 1015.9 - 0.0
23/05:00am 7.6 5.9 2.1 68 2.3 CALM 0 0 0 0 1015.8 - 0.0
23/04:30am 8.1 6.0 1.9 65 2.6 W 2 7 1 4 1015.7 - 0.0
23/04:00am 8.5 5.6 1.6 62 2.8 W 6 7 3 4 1015.7 - 0.0
23/03:30am 9.0 6.1 1.4 59 3.1 W 6 9 3 5 1016.0 - 0.0
23/03:26am 9.1 6.2 1.5 59 3.1 WSW 6 7 3 4 1016.0 - 0.0
23/03:15am 9.2 6.3 1.4 58 3.2 SW 6 7 3 4 1016.1 - 0.0
23/03:00am 9.2 7.4 1.1 57 3.3 CALM 0 0 0 0 1016.0 1016.0 0.0
23/02:30am 9.7 7.9 0.9 54 3.6 CALM 0 0 0 0 1016.0 - 0.0
23/02:00am 9.8 7.6 0.9 54 3.7 W 2 6 1 3 1016.0 - 0.0
23/01:30am 10.5 7.8 0.5 50 4.1 WNW 4 6 2 3 1016.0 - 0.0
23/01:00am 11.2 9.4 0.9 49 4.3 CALM 0 0 0 0 1015.9 - 0.0
23/12:44am 11.5 9.7 0.9 48 4.4 CALM 0 0 0 0 1015.8 - 0.0
23/12:33am 11.7 9.9 1.1 48 4.5 CALM 0 0 0 0 1015.8 - 0.0
23/12:30am 11.7 9.8 0.8 47 4.5 CALM 0 0 0 0 1015.8 - 0.0
23/12:00am 12.5 10.5 0.0 42 5.2 CALM 0 0 0 0 1015.7 1015.7 0.0
 
Date/Time
CST
Temp
°C
App
Temp
°C
Dew
Point
Rel
Hum
%
Delta-T
°C
Wind Press
QNH
hPa
Press
MSL
hPa
Rain
since 9 am
mm
Dir
 
Spd
km/h
Gust
km/h
Spd
kts
Gust
kts
22/11:30pm 13.9 11.7 -1.3 35 6.2 CALM 0 0 0 0 1015.9 - 0.0
22/11:00pm 15.4 12.9 -1.2 32 6.9 N 2 6 1 3 1016.0 - 0.0
22/10:30pm 16.5 13.0 -1.6 29 7.5 N 7 9 4 5 1015.9 - 0.0
22/10:00pm 18.2 14.6 -2.1 25 8.5 N 7 9 4 5 1015.7 - 0.0
22/09:42pm 19.5 15.9 -2.2 23 9.1 NNE 7 9 4 5 1015.5 - 0.0
22/09:30pm 19.9 15.9 -2.4 22 9.4 NNE 9 11 5 6 1015.5 - 0.0
22/09:29pm 19.9 15.9 -2.4 22 9.4 NNE 9 11 5 6 1015.5 - 0.0
22/09:22pm 19.9 15.8 -3.0 21 9.5 NNE 9 13 5 7 1015.4 - 0.0
22/09:10pm 20.3 16.2 -3.4 20 9.8 NNE 9 13 5 7 1015.5 - 0.0
22/09:00pm 20.5 16.3 -3.9 19 10.0 NNE 9 13 5 7 1015.4 1015.4 0.0
22/08:30pm 21.0 16.7 -5.0 17 10.5 NNE 9 13 5 7 1015.5 - 0.0
22/08:00pm 22.3 18.2 -3.1 18 10.8 NNE 9 13 5 7 1015.3 - 0.0
22/07:30pm 22.3 18.5 -1.1 21 10.3 NNE 9 13 5 7 1015.1 - 0.0
22/07:00pm 23.2 19.7 -3.2 17 11.3 N 6 7 3 4 1014.7 - 0.0
22/06:30pm 24.8 20.7 -8.8 10 13.1 E 6 7 3 4 1014.2 - 0.0
22/06:00pm 27.5 23.1 -9.7 8 14.7 E 7 7 4 4 1013.9 1013.8 0.0
22/05:30pm 28.8 23.9 -12.3 6 15.7 E 9 13 5 7 1013.7 - 0.0
22/05:00pm 30.2 25.2 -13.6 5 16.6 ESE 9 13 5 7 1013.7 - 0.0
22/04:30pm 30.1 25.1 -13.6 5 16.5 E 9 15 5 8 1013.8 - 0.0
22/04:00pm 30.4 25.0 -13.4 5 16.7 ESE 11 19 6 10 1013.9 - 0.0
22/03:30pm 30.9 25.7 -10.8 6 16.7 SE 11 19 6 10 1014.2 - 0.0
22/03:00pm 30.4 25.3 -16.1 4 16.9 ENE 9 17 5 9 1014.4 1014.3 0.0
22/02:30pm 30.1 24.2 -16.3 4 16.8 SSE 13 17 7 9 1014.8 - 0.0
22/02:00pm 30.5 24.8 -13.3 5 16.7 ENE 13 20 7 11 1015.3 - 0.0
22/01:30pm 30.3 24.5 -13.5 5 16.6 ENE 13 24 7 13 1015.8 - 0.0
22/01:00pm 29.6 24.3 -11.7 6 16.1 E 11 20 6 11 1016.5 - 0.0
22/12:30pm 29.7 24.7 -8.0 8 15.6 ESE 11 20 6 11 1017.2 - 0.0
22/12:00pm 28.9 23.5 -8.6 8 15.2 E 13 22 7 12 1017.9 1017.9 0.0
22/11:30am 28.0 22.3 -7.8 9 14.7 ESE 15 22 8 12 1018.6 - 0.0
22/11:00am 26.1 22.6 1.4 20 11.8 S 9 15 5 8 1019.2 - 0.0
22/10:30am 24.4 22.3 5.7 30 9.5 NE 6 9 3 5 1019.6 - 0.0
22/10:00am 22.6 22.0 7.2 37 8.0 CALM 0 6 0 3 1019.8 - 0.0
22/09:30am 20.4 19.3 7.1 42 6.8 NW 2 7 1 4 1019.9 - 0.0
22/09:00am 17.8 15.9 6.7 48 5.5 SSW 6 7 3 4 1019.9 1019.9 0.0
22/08:30am 15.3 13.2 6.6 56 4.2 SW 7 9 4 5 1019.5 - 0.0
22/08:00am 12.5 10.7 7.0 69 2.7 SW 6 7 3 4 1019.2 - 0.0
22/07:30am 9.4 8.6 6.3 81 1.4 CALM 0 4 0 2 1018.9 - 0.0
22/07:00am 8.4 6.7 5.7 83 1.2 SW 4 7 2 4 1018.5 - 0.0
22/06:30am 8.9 7.9 5.8 81 1.4 CALM 0 0 0 0 1018.2 - 0.0
22/06:00am 9.4 8.5 5.9 79 1.6 CALM 0 0 0 0 1017.8 1017.8 0.0
22/05:30am 9.9 9.0 5.9 76 1.8 CALM 0 0 0 0 1017.6 - 0.0

Other Formats:

Comma delimited format used in spreadsheet applications
http://www.bom.gov.au/fwo/IDD60801/IDD60801.94239.axf

JavaScript Object Notation format (JSON) in row-major order
http://www.bom.gov.au/fwo/IDD60801/IDD60801.94239.json